sensor_id;sensor_type;location;lat;lon;timestamp;P1;durP1;ratioP1;P2;durP2;ratioP2
72720;SDS011;60835;50.974;10.322;2023-08-31T00:01:03;4.80;;;2.35;;
72720;SDS011;60835;50.974;10.322;2023-08-31T00:03:31;5.28;;;3.00;;
72720;SDS011;60835;50.974;10.322;2023-08-31T00:06:00;3.97;;;2.65;;
72720;SDS011;60835;50.974;10.322;2023-08-31T00:08:28;4.45;;;2.72;;
72720;SDS011;60835;50.974;10.322;2023-08-31T00:10:58;7.45;;;3.00;;
72720;SDS011;60835;50.974;10.322;2023-08-31T00:13:26;5.10;;;2.80;;
72720;SDS011;60835;50.974;10.322;2023-08-31T00:15:55;6.30;;;3.08;;
72720;SDS011;60835;50.974;10.322;2023-08-31T00:18:23;4.60;;;3.20;;
72720;SDS011;60835;50.974;10.322;2023-08-31T00:20:53;5.30;;;3.55;;
72720;SDS011;60835;50.974;10.322;2023-08-31T00:23:20;4.75;;;3.45;;
72720;SDS011;60835;50.974;10.322;2023-08-31T00:25:47;4.65;;;3.47;;
72720;SDS011;60835;50.974;10.322;2023-08-31T00:28:18;6.40;;;4.05;;
72720;SDS011;60835;50.974;10.322;2023-08-31T00:30:46;5.85;;;3.78;;
72720;SDS011;60835;50.974;10.322;2023-08-31T00:33:13;5.55;;;3.78;;
72720;SDS011;60835;50.974;10.322;2023-08-31T00:35:41;6.70;;;3.95;;
72720;SDS011;60835;50.974;10.322;2023-08-31T00:38:12;6.10;;;4.05;;
72720;SDS011;60835;50.974;10.322;2023-08-31T00:40:41;5.38;;;4.05;;
72720;SDS011;60835;50.974;10.322;2023-08-31T00:43:12;5.60;;;4.25;;
72720;SDS011;60835;50.974;10.322;2023-08-31T00:45:42;8.90;;;4.53;;
72720;SDS011;60835;50.974;10.322;2023-08-31T00:48:14;8.30;;;5.05;;
72720;SDS011;60835;50.974;10.322;2023-08-31T00:50:43;8.38;;;5.40;;
72720;SDS011;60835;50.974;10.322;2023-08-31T00:53:11;7.68;;;5.07;;
72720;SDS011;60835;50.974;10.322;2023-08-31T00:55:40;7.20;;;5.05;;
72720;SDS011;60835;50.974;10.322;2023-08-31T00:58:07;7.43;;;4.78;;
72720;SDS011;60835;50.974;10.322;2023-08-31T01:03:19;11.35;;;5.28;;
72720;SDS011;60835;50.974;10.322;2023-08-31T01:05:55;9.65;;;6.15;;
72720;SDS011;60835;50.974;10.322;2023-08-31T01:08:33;8.93;;;5.45;;
72720;SDS011;60835;50.974;10.322;2023-08-31T01:14:00;7.82;;;6.00;;
72720;SDS011;60835;50.974;10.322;2023-08-31T01:16:34;13.88;;;5.82;;
72720;SDS011;60835;50.974;10.322;2023-08-31T01:19:06;12.23;;;6.40;;
72720;SDS011;60835;50.974;10.322;2023-08-31T01:21:48;11.38;;;6.50;;
72720;SDS011;60835;50.974;10.322;2023-08-31T01:24:17;8.10;;;6.00;;
72720;SDS011;60835;50.974;10.322;2023-08-31T01:26:44;8.88;;;6.07;;
72720;SDS011;60835;50.974;10.322;2023-08-31T01:29:10;8.30;;;5.50;;
72720;SDS011;60835;50.974;10.322;2023-08-31T01:31:43;10.70;;;6.45;;
72720;SDS011;60835;50.974;10.322;2023-08-31T01:34:11;10.20;;;6.18;;
72720;SDS011;60835;50.974;10.322;2023-08-31T01:36:38;9.07;;;6.03;;
72720;SDS011;60835;50.974;10.322;2023-08-31T01:39:14;10.02;;;5.97;;
72720;SDS011;60835;50.974;10.322;2023-08-31T01:41:49;8.55;;;6.05;;
72720;SDS011;60835;50.974;10.322;2023-08-31T01:44:22;11.20;;;6.15;;
72720;SDS011;60835;50.974;10.322;2023-08-31T01:46:51;9.77;;;6.57;;
72720;SDS011;60835;50.974;10.322;2023-08-31T01:49:22;11.20;;;6.78;;
72720;SDS011;60835;50.974;10.322;2023-08-31T01:51:48;10.55;;;6.70;;
72720;SDS011;60835;50.974;10.322;2023-08-31T01:54:15;10.73;;;6.68;;
72720;SDS011;60835;50.974;10.322;2023-08-31T01:56:42;11.85;;;6.57;;
72720;SDS011;60835;50.974;10.322;2023-08-31T01:59:08;9.50;;;6.65;;
72720;SDS011;60835;50.974;10.322;2023-08-31T02:01:35;10.00;;;5.72;;
72720;SDS011;60835;50.974;10.322;2023-08-31T02:04:03;10.05;;;6.78;;
72720;SDS011;60835;50.974;10.322;2023-08-31T02:06:30;9.68;;;6.35;;
72720;SDS011;60835;50.974;10.322;2023-08-31T02:08:56;10.27;;;5.80;;
72720;SDS011;60835;50.974;10.322;2023-08-31T02:11:23;10.63;;;7.30;;
72720;SDS011;60835;50.974;10.322;2023-08-31T02:13:49;11.00;;;6.70;;
72720;SDS011;60835;50.974;10.322;2023-08-31T02:16:16;9.32;;;6.30;;
72720;SDS011;60835;50.974;10.322;2023-08-31T02:18:44;9.55;;;6.47;;
72720;SDS011;60835;50.974;10.322;2023-08-31T02:21:11;10.88;;;6.10;;
72720;SDS011;60835;50.974;10.322;2023-08-31T02:23:38;11.98;;;6.28;;
72720;SDS011;60835;50.974;10.322;2023-08-31T02:26:05;11.25;;;6.15;;
72720;SDS011;60835;50.974;10.322;2023-08-31T02:28:31;13.05;;;6.38;;
72720;SDS011;60835;50.974;10.322;2023-08-31T02:30:58;10.85;;;6.47;;
72720;SDS011;60835;50.974;10.322;2023-08-31T02:33:29;10.90;;;7.18;;
72720;SDS011;60835;50.974;10.322;2023-08-31T02:35:55;11.32;;;6.80;;
72720;SDS011;60835;50.974;10.322;2023-08-31T02:38:22;9.75;;;6.65;;
72720;SDS011;60835;50.974;10.322;2023-08-31T02:40:49;10.88;;;7.05;;
72720;SDS011;60835;50.974;10.322;2023-08-31T02:43:16;12.30;;;6.40;;
72720;SDS011;60835;50.974;10.322;2023-08-31T02:45:47;13.95;;;6.85;;
72720;SDS011;60835;50.974;10.322;2023-08-31T02:48:14;11.85;;;6.57;;
72720;SDS011;60835;50.974;10.322;2023-08-31T02:50:41;12.18;;;6.03;;
72720;SDS011;60835;50.974;10.322;2023-08-31T02:53:07;11.65;;;6.70;;
72720;SDS011;60835;50.974;10.322;2023-08-31T02:55:34;11.30;;;6.47;;
72720;SDS011;60835;50.974;10.322;2023-08-31T02:58:00;12.52;;;6.65;;
72720;SDS011;60835;50.974;10.322;2023-08-31T03:00:27;13.93;;;7.20;;
72720;SDS011;60835;50.974;10.322;2023-08-31T03:02:54;10.50;;;6.03;;
72720;SDS011;60835;50.974;10.322;2023-08-31T03:05:21;16.00;;;7.07;;
72720;SDS011;60835;50.974;10.322;2023-08-31T03:07:48;10.88;;;6.55;;
72720;SDS011;60835;50.974;10.322;2023-08-31T03:10:15;12.90;;;7.25;;
72720;SDS011;60835;50.974;10.322;2023-08-31T03:12:42;10.35;;;6.45;;
72720;SDS011;60835;50.974;10.322;2023-08-31T03:15:09;10.75;;;6.72;;
72720;SDS011;60835;50.974;10.322;2023-08-31T03:17:35;9.73;;;7.30;;
72720;SDS011;60835;50.974;10.322;2023-08-31T03:20:02;9.98;;;6.57;;
72720;SDS011;60835;50.974;10.322;2023-08-31T03:22:30;12.00;;;7.28;;
72720;SDS011;60835;50.974;10.322;2023-08-31T03:24:57;13.13;;;6.78;;
72720;SDS011;60835;50.974;10.322;2023-08-31T03:27:24;12.38;;;6.55;;
72720;SDS011;60835;50.974;10.322;2023-08-31T03:29:51;10.73;;;6.63;;
72720;SDS011;60835;50.974;10.322;2023-08-31T03:32:18;12.82;;;7.78;;
72720;SDS011;60835;50.974;10.322;2023-08-31T03:34:45;14.10;;;7.63;;
72720;SDS011;60835;50.974;10.322;2023-08-31T03:37:12;15.18;;;8.02;;
72720;SDS011;60835;50.974;10.322;2023-08-31T03:39:39;10.80;;;7.18;;
72720;SDS011;60835;50.974;10.322;2023-08-31T03:42:07;13.13;;;7.70;;
72720;SDS011;60835;50.974;10.322;2023-08-31T03:44:34;13.70;;;8.00;;
72720;SDS011;60835;50.974;10.322;2023-08-31T03:47:01;16.80;;;8.20;;
72720;SDS011;60835;50.974;10.322;2023-08-31T03:49:32;12.65;;;8.02;;
72720;SDS011;60835;50.974;10.322;2023-08-31T03:52:00;10.43;;;7.40;;
72720;SDS011;60835;50.974;10.322;2023-08-31T03:54:27;15.43;;;8.60;;
72720;SDS011;60835;50.974;10.322;2023-08-31T03:56:53;17.52;;;8.20;;
72720;SDS011;60835;50.974;10.322;2023-08-31T03:59:20;14.80;;;8.90;;
72720;SDS011;60835;50.974;10.322;2023-08-31T04:01:46;17.13;;;8.82;;
72720;SDS011;60835;50.974;10.322;2023-08-31T04:04:13;18.90;;;9.82;;
72720;SDS011;60835;50.974;10.322;2023-08-31T04:06:40;14.40;;;8.68;;
72720;SDS011;60835;50.974;10.322;2023-08-31T04:09:07;14.43;;;9.25;;
72720;SDS011;60835;50.974;10.322;2023-08-31T04:11:33;17.00;;;10.20;;
72720;SDS011;60835;50.974;10.322;2023-08-31T04:14:00;17.10;;;9.32;;
72720;SDS011;60835;50.974;10.322;2023-08-31T04:16:27;13.85;;;9.13;;
72720;SDS011;60835;50.974;10.322;2023-08-31T04:18:55;14.65;;;8.75;;
72720;SDS011;60835;50.974;10.322;2023-08-31T04:21:22;17.77;;;9.18;;
72720;SDS011;60835;50.974;10.322;2023-08-31T04:23:48;14.43;;;9.10;;
72720;SDS011;60835;50.974;10.322;2023-08-31T04:26:15;15.13;;;9.77;;
72720;SDS011;60835;50.974;10.322;2023-08-31T04:28:43;17.63;;;9.07;;
72720;SDS011;60835;50.974;10.322;2023-08-31T04:31:10;18.52;;;10.63;;
72720;SDS011;60835;50.974;10.322;2023-08-31T04:33:37;14.45;;;9.07;;
72720;SDS011;60835;50.974;10.322;2023-08-31T04:36:04;15.75;;;9.85;;
72720;SDS011;60835;50.974;10.322;2023-08-31T04:38:31;17.60;;;10.32;;
72720;SDS011;60835;50.974;10.322;2023-08-31T04:40:59;19.85;;;12.20;;
72720;SDS011;60835;50.974;10.322;2023-08-31T04:43:29;14.45;;;9.20;;
72720;SDS011;60835;50.974;10.322;2023-08-31T04:45:56;15.27;;;10.13;;
72720;SDS011;60835;50.974;10.322;2023-08-31T04:48:22;16.60;;;8.88;;
72720;SDS011;60835;50.974;10.322;2023-08-31T04:50:49;18.85;;;9.40;;
72720;SDS011;60835;50.974;10.322;2023-08-31T04:53:15;18.50;;;10.27;;
72720;SDS011;60835;50.974;10.322;2023-08-31T04:55:42;16.45;;;8.55;;
72720;SDS011;60835;50.974;10.322;2023-08-31T04:58:09;14.45;;;9.48;;
72720;SDS011;60835;50.974;10.322;2023-08-31T05:00:36;14.52;;;8.77;;
72720;SDS011;60835;50.974;10.322;2023-08-31T05:03:02;16.67;;;9.52;;
72720;SDS011;60835;50.974;10.322;2023-08-31T05:05:29;15.32;;;8.65;;
72720;SDS011;60835;50.974;10.322;2023-08-31T05:07:58;16.65;;;8.40;;
72720;SDS011;60835;50.974;10.322;2023-08-31T05:10:25;12.45;;;8.73;;
72720;SDS011;60835;50.974;10.322;2023-08-31T05:12:52;16.73;;;8.68;;
72720;SDS011;60835;50.974;10.322;2023-08-31T05:15:18;13.80;;;8.88;;
72720;SDS011;60835;50.974;10.322;2023-08-31T05:17:45;16.73;;;8.45;;
72720;SDS011;60835;50.974;10.322;2023-08-31T05:20:15;17.05;;;9.02;;
72720;SDS011;60835;50.974;10.322;2023-08-31T05:22:45;15.27;;;8.85;;
72720;SDS011;60835;50.974;10.322;2023-08-31T05:25:13;21.48;;;8.50;;
72720;SDS011;60835;50.974;10.322;2023-08-31T05:27:39;13.70;;;8.18;;
72720;SDS011;60835;50.974;10.322;2023-08-31T05:30:06;17.90;;;9.18;;
72720;SDS011;60835;50.974;10.322;2023-08-31T05:32:33;12.00;;;8.02;;
72720;SDS011;60835;50.974;10.322;2023-08-31T05:35:00;12.80;;;8.32;;
72720;SDS011;60835;50.974;10.322;2023-08-31T05:37:30;14.68;;;8.05;;
72720;SDS011;60835;50.974;10.322;2023-08-31T05:39:58;13.00;;;7.85;;
72720;SDS011;60835;50.974;10.322;2023-08-31T05:42:25;13.88;;;8.98;;
72720;SDS011;60835;50.974;10.322;2023-08-31T05:44:52;14.18;;;8.02;;
72720;SDS011;60835;50.974;10.322;2023-08-31T05:47:19;13.82;;;8.55;;
72720;SDS011;60835;50.974;10.322;2023-08-31T05:49:47;18.02;;;8.43;;
72720;SDS011;60835;50.974;10.322;2023-08-31T05:52:15;16.20;;;9.02;;
72720;SDS011;60835;50.974;10.322;2023-08-31T05:54:41;17.20;;;8.40;;
72720;SDS011;60835;50.974;10.322;2023-08-31T05:57:08;13.23;;;8.60;;
72720;SDS011;60835;50.974;10.322;2023-08-31T05:59:34;13.93;;;8.15;;
72720;SDS011;60835;50.974;10.322;2023-08-31T06:02:01;12.40;;;8.27;;
72720;SDS011;60835;50.974;10.322;2023-08-31T06:04:29;15.38;;;8.02;;
72720;SDS011;60835;50.974;10.322;2023-08-31T06:06:57;13.02;;;7.85;;
72720;SDS011;60835;50.974;10.322;2023-08-31T06:09:23;14.57;;;7.95;;
72720;SDS011;60835;50.974;10.322;2023-08-31T06:11:50;12.70;;;6.97;;
72720;SDS011;60835;50.974;10.322;2023-08-31T06:14:16;17.25;;;8.70;;
72720;SDS011;60835;50.974;10.322;2023-08-31T06:16:43;14.73;;;6.65;;
72720;SDS011;60835;50.974;10.322;2023-08-31T06:19:10;11.85;;;7.88;;
72720;SDS011;60835;50.974;10.322;2023-08-31T06:21:36;11.65;;;7.47;;
72720;SDS011;60835;50.974;10.322;2023-08-31T06:24:03;16.92;;;7.80;;
72720;SDS011;60835;50.974;10.322;2023-08-31T06:26:31;13.20;;;7.32;;
72720;SDS011;60835;50.974;10.322;2023-08-31T06:28:58;37.33;;;23.30;;
72720;SDS011;60835;50.974;10.322;2023-08-31T06:31:25;14.25;;;8.77;;
72720;SDS011;60835;50.974;10.322;2023-08-31T06:33:51;11.63;;;8.02;;
72720;SDS011;60835;50.974;10.322;2023-08-31T06:36:18;11.88;;;6.82;;
72720;SDS011;60835;50.974;10.322;2023-08-31T06:38:44;12.02;;;6.93;;
72720;SDS011;60835;50.974;10.322;2023-08-31T06:41:11;16.90;;;7.75;;
72720;SDS011;60835;50.974;10.322;2023-08-31T06:43:38;10.57;;;6.55;;
72720;SDS011;60835;50.974;10.322;2023-08-31T06:46:04;10.30;;;6.40;;
72720;SDS011;60835;50.974;10.322;2023-08-31T06:48:49;16.15;;;6.95;;
72720;SDS011;60835;50.974;10.322;2023-08-31T06:51:16;12.30;;;6.70;;
72720;SDS011;60835;50.974;10.322;2023-08-31T06:53:43;10.52;;;6.60;;
72720;SDS011;60835;50.974;10.322;2023-08-31T06:56:10;10.20;;;6.35;;
72720;SDS011;60835;50.974;10.322;2023-08-31T06:58:36;9.05;;;5.78;;
72720;SDS011;60835;50.974;10.322;2023-08-31T07:01:06;9.50;;;5.65;;
72720;SDS011;60835;50.974;10.322;2023-08-31T07:03:33;9.68;;;6.00;;
72720;SDS011;60835;50.974;10.322;2023-08-31T07:06:00;13.77;;;5.88;;
72720;SDS011;60835;50.974;10.322;2023-08-31T07:08:26;11.90;;;6.05;;
72720;SDS011;60835;50.974;10.322;2023-08-31T07:10:54;9.30;;;5.65;;
72720;SDS011;60835;50.974;10.322;2023-08-31T07:13:20;7.90;;;5.10;;
72720;SDS011;60835;50.974;10.322;2023-08-31T07:15:47;12.18;;;5.25;;
72720;SDS011;60835;50.974;10.322;2023-08-31T07:18:15;8.10;;;4.45;;
72720;SDS011;60835;50.974;10.322;2023-08-31T07:20:41;9.07;;;5.35;;
72720;SDS011;60835;50.974;10.322;2023-08-31T07:23:08;9.55;;;4.38;;
72720;SDS011;60835;50.974;10.322;2023-08-31T07:25:35;12.40;;;5.13;;
72720;SDS011;60835;50.974;10.322;2023-08-31T07:28:02;7.95;;;4.32;;
72720;SDS011;60835;50.974;10.322;2023-08-31T07:30:29;6.90;;;4.57;;
72720;SDS011;60835;50.974;10.322;2023-08-31T07:32:56;7.60;;;3.80;;
72720;SDS011;60835;50.974;10.322;2023-08-31T07:35:22;8.38;;;4.65;;
72720;SDS011;60835;50.974;10.322;2023-08-31T07:37:49;13.32;;;5.95;;
72720;SDS011;60835;50.974;10.322;2023-08-31T07:40:16;10.52;;;4.45;;
72720;SDS011;60835;50.974;10.322;2023-08-31T07:42:43;6.65;;;3.85;;
72720;SDS011;60835;50.974;10.322;2023-08-31T07:45:09;7.38;;;4.00;;
72720;SDS011;60835;50.974;10.322;2023-08-31T07:47:36;5.72;;;3.55;;
72720;SDS011;60835;50.974;10.322;2023-08-31T07:50:02;7.15;;;3.40;;
72720;SDS011;60835;50.974;10.322;2023-08-31T07:52:29;8.95;;;3.90;;
72720;SDS011;60835;50.974;10.322;2023-08-31T07:54:56;6.82;;;3.35;;
72720;SDS011;60835;50.974;10.322;2023-08-31T07:57:22;5.63;;;2.63;;
72720;SDS011;60835;50.974;10.322;2023-08-31T07:59:49;7.90;;;3.28;;
72720;SDS011;60835;50.974;10.322;2023-08-31T08:02:15;7.60;;;3.25;;
72720;SDS011;60835;50.974;10.322;2023-08-31T08:04:43;4.70;;;2.40;;
72720;SDS011;60835;50.974;10.322;2023-08-31T08:07:11;7.20;;;2.47;;
72720;SDS011;60835;50.974;10.322;2023-08-31T08:09:38;4.70;;;2.40;;
72720;SDS011;60835;50.974;10.322;2023-08-31T08:12:05;4.07;;;2.20;;
72720;SDS011;60835;50.974;10.322;2023-08-31T08:14:32;4.38;;;2.03;;
72720;SDS011;60835;50.974;10.322;2023-08-31T08:16:59;5.28;;;2.25;;
72720;SDS011;60835;50.974;10.322;2023-08-31T08:19:26;3.28;;;1.77;;
72720;SDS011;60835;50.974;10.322;2023-08-31T08:21:52;3.83;;;1.70;;
72720;SDS011;60835;50.974;10.322;2023-08-31T08:24:20;3.10;;;1.60;;
72720;SDS011;60835;50.974;10.322;2023-08-31T08:26:47;3.55;;;1.60;;
72720;SDS011;60835;50.974;10.322;2023-08-31T08:29:16;5.43;;;2.88;;
72720;SDS011;60835;50.974;10.322;2023-08-31T08:31:43;3.35;;;1.85;;
72720;SDS011;60835;50.974;10.322;2023-08-31T08:34:10;3.95;;;1.50;;
72720;SDS011;60835;50.974;10.322;2023-08-31T08:36:36;4.03;;;1.70;;
72720;SDS011;60835;50.974;10.322;2023-08-31T08:39:03;3.20;;;1.90;;
72720;SDS011;60835;50.974;10.322;2023-08-31T08:41:30;3.58;;;1.70;;
72720;SDS011;60835;50.974;10.322;2023-08-31T08:44:01;4.25;;;2.72;;
72720;SDS011;60835;50.974;10.322;2023-08-31T08:46:30;3.72;;;2.00;;
72720;SDS011;60835;50.974;10.322;2023-08-31T08:48:59;2.13;;;1.60;;
72720;SDS011;60835;50.974;10.322;2023-08-31T08:51:27;5.78;;;1.75;;
72720;SDS011;60835;50.974;10.322;2023-08-31T08:53:54;4.95;;;1.67;;
72720;SDS011;60835;50.974;10.322;2023-08-31T08:56:23;3.22;;;1.70;;
72720;SDS011;60835;50.974;10.322;2023-08-31T08:58:50;4.20;;;1.73;;
72720;SDS011;60835;50.974;10.322;2023-08-31T09:01:16;3.40;;;1.98;;
72720;SDS011;60835;50.974;10.322;2023-08-31T09:03:49;3.08;;;1.75;;
72720;SDS011;60835;50.974;10.322;2023-08-31T09:06:16;4.95;;;1.85;;
72720;SDS011;60835;50.974;10.322;2023-08-31T09:08:42;5.15;;;1.90;;
72720;SDS011;60835;50.974;10.322;2023-08-31T09:11:09;2.97;;;1.52;;
72720;SDS011;60835;50.974;10.322;2023-08-31T09:13:49;3.92;;;2.53;;
72720;SDS011;60835;50.974;10.322;2023-08-31T09:16:29;3.63;;;1.77;;
72720;SDS011;60835;50.974;10.322;2023-08-31T09:18:56;2.92;;;1.63;;
72720;SDS011;60835;50.974;10.322;2023-08-31T09:21:36;3.95;;;1.77;;
72720;SDS011;60835;50.974;10.322;2023-08-31T09:24:07;4.20;;;1.70;;
72720;SDS011;60835;50.974;10.322;2023-08-31T09:26:37;2.65;;;1.75;;
72720;SDS011;60835;50.974;10.322;2023-08-31T09:29:07;3.63;;;2.30;;
72720;SDS011;60835;50.974;10.322;2023-08-31T09:31:34;2.22;;;1.52;;
72720;SDS011;60835;50.974;10.322;2023-08-31T09:34:01;4.28;;;1.70;;
72720;SDS011;60835;50.974;10.322;2023-08-31T09:36:29;1.95;;;1.45;;
72720;SDS011;60835;50.974;10.322;2023-08-31T09:38:56;2.72;;;1.40;;
72720;SDS011;60835;50.974;10.322;2023-08-31T09:41:24;3.67;;;1.67;;
72720;SDS011;60835;50.974;10.322;2023-08-31T09:43:52;4.32;;;1.73;;
72720;SDS011;60835;50.974;10.322;2023-08-31T09:46:18;2.92;;;1.60;;
72720;SDS011;60835;50.974;10.322;2023-08-31T09:48:47;3.63;;;1.60;;
72720;SDS011;60835;50.974;10.322;2023-08-31T09:51:14;3.38;;;1.50;;
72720;SDS011;60835;50.974;10.322;2023-08-31T09:53:43;2.10;;;1.52;;
72720;SDS011;60835;50.974;10.322;2023-08-31T09:56:13;3.70;;;1.75;;
72720;SDS011;60835;50.974;10.322;2023-08-31T09:58:47;2.60;;;1.60;;
72720;SDS011;60835;50.974;10.322;2023-08-31T10:01:14;4.43;;;1.77;;
72720;SDS011;60835;50.974;10.322;2023-08-31T10:03:54;3.95;;;1.60;;
72720;SDS011;60835;50.974;10.322;2023-08-31T10:06:21;2.13;;;1.48;;
72720;SDS011;60835;50.974;10.322;2023-08-31T10:08:48;4.28;;;1.80;;
72720;SDS011;60835;50.974;10.322;2023-08-31T10:11:15;4.25;;;1.70;;
72720;SDS011;60835;50.974;10.322;2023-08-31T10:13:42;9.07;;;1.75;;
72720;SDS011;60835;50.974;10.322;2023-08-31T10:16:09;3.65;;;1.60;;
72720;SDS011;60835;50.974;10.322;2023-08-31T10:18:37;3.70;;;1.67;;
72720;SDS011;60835;50.974;10.322;2023-08-31T10:21:05;2.85;;;1.67;;
72720;SDS011;60835;50.974;10.322;2023-08-31T10:23:32;7.20;;;1.90;;
72720;SDS011;60835;50.974;10.322;2023-08-31T10:26:06;3.88;;;1.50;;
72720;SDS011;60835;50.974;10.322;2023-08-31T10:28:38;7.57;;;3.95;;
72720;SDS011;60835;50.974;10.322;2023-08-31T10:31:14;5.18;;;1.60;;
72720;SDS011;60835;50.974;10.322;2023-08-31T10:33:47;4.65;;;1.90;;
72720;SDS011;60835;50.974;10.322;2023-08-31T10:36:21;4.03;;;1.67;;
72720;SDS011;60835;50.974;10.322;2023-08-31T10:41:25;2.75;;;1.60;;
72720;SDS011;60835;50.974;10.322;2023-08-31T10:43:58;3.03;;;1.45;;
72720;SDS011;60835;50.974;10.322;2023-08-31T10:46:29;3.40;;;1.42;;
72720;SDS011;60835;50.974;10.322;2023-08-31T10:51:25;2.65;;;1.40;;
72720;SDS011;60835;50.974;10.322;2023-08-31T11:05:14;3.55;;;1.52;;
72720;SDS011;60835;50.974;10.322;2023-08-31T11:07:43;2.15;;;1.25;;
72720;SDS011;60835;50.974;10.322;2023-08-31T11:10:12;2.95;;;1.42;;
72720;SDS011;60835;50.974;10.322;2023-08-31T11:12:48;1.75;;;1.23;;
72720;SDS011;60835;50.974;10.322;2023-08-31T11:15:16;2.33;;;1.55;;
72720;SDS011;60835;50.974;10.322;2023-08-31T11:17:45;2.05;;;1.40;;
72720;SDS011;60835;50.974;10.322;2023-08-31T11:20:16;3.05;;;1.40;;
72720;SDS011;60835;50.974;10.322;2023-08-31T11:22:45;1.85;;;1.33;;
72720;SDS011;60835;50.974;10.322;2023-08-31T11:25:16;2.20;;;1.33;;
72720;SDS011;60835;50.974;10.322;2023-08-31T11:27:53;4.40;;;1.75;;
72720;SDS011;60835;50.974;10.322;2023-08-31T11:30:25;5.32;;;1.55;;
72720;SDS011;60835;50.974;10.322;2023-08-31T11:32:53;3.10;;;1.38;;
72720;SDS011;60835;50.974;10.322;2023-08-31T11:35:20;4.65;;;1.50;;
72720;SDS011;60835;50.974;10.322;2023-08-31T11:37:55;3.45;;;2.58;;
72720;SDS011;60835;50.974;10.322;2023-08-31T11:40:22;6.15;;;1.50;;
72720;SDS011;60835;50.974;10.322;2023-08-31T11:42:49;4.15;;;1.65;;
72720;SDS011;60835;50.974;10.322;2023-08-31T11:45:16;3.00;;;1.42;;
72720;SDS011;60835;50.974;10.322;2023-08-31T11:47:45;2.63;;;1.88;;
72720;SDS011;60835;50.974;10.322;2023-08-31T11:50:13;2.90;;;1.48;;
72720;SDS011;60835;50.974;10.322;2023-08-31T11:52:42;3.53;;;1.75;;
72720;SDS011;60835;50.974;10.322;2023-08-31T11:55:15;2.35;;;1.48;;
72720;SDS011;60835;50.974;10.322;2023-08-31T11:57:49;4.40;;;1.40;;
72720;SDS011;60835;50.974;10.322;2023-08-31T12:00:21;2.30;;;1.13;;
72720;SDS011;60835;50.974;10.322;2023-08-31T12:02:59;3.70;;;1.40;;
72720;SDS011;60835;50.974;10.322;2023-08-31T12:05:43;4.70;;;1.40;;
72720;SDS011;60835;50.974;10.322;2023-08-31T12:08:11;2.28;;;1.73;;
72720;SDS011;60835;50.974;10.322;2023-08-31T12:10:41;4.30;;;1.42;;
72720;SDS011;60835;50.974;10.322;2023-08-31T12:13:09;2.88;;;1.42;;
72720;SDS011;60835;50.974;10.322;2023-08-31T12:15:37;2.10;;;1.48;;
72720;SDS011;60835;50.974;10.322;2023-08-31T12:18:08;1.92;;;1.50;;
72720;SDS011;60835;50.974;10.322;2023-08-31T12:20:52;3.30;;;1.20;;
72720;SDS011;60835;50.974;10.322;2023-08-31T12:23:19;3.33;;;1.13;;
72720;SDS011;60835;50.974;10.322;2023-08-31T12:25:54;2.58;;;1.30;;
72720;SDS011;60835;50.974;10.322;2023-08-31T12:28:22;3.53;;;1.23;;
72720;SDS011;60835;50.974;10.322;2023-08-31T12:30:50;2.65;;;1.50;;
72720;SDS011;60835;50.974;10.322;2023-08-31T12:33:18;2.45;;;1.10;;
72720;SDS011;60835;50.974;10.322;2023-08-31T12:35:47;2.30;;;1.50;;
72720;SDS011;60835;50.974;10.322;2023-08-31T12:38:13;2.20;;;1.25;;
72720;SDS011;60835;50.974;10.322;2023-08-31T12:40:40;1.60;;;1.20;;
72720;SDS011;60835;50.974;10.322;2023-08-31T12:43:07;5.30;;;1.50;;
72720;SDS011;60835;50.974;10.322;2023-08-31T12:45:36;4.05;;;1.30;;
72720;SDS011;60835;50.974;10.322;2023-08-31T12:48:07;3.05;;;1.40;;
72720;SDS011;60835;50.974;10.322;2023-08-31T12:50:34;5.25;;;1.10;;
72720;SDS011;60835;50.974;10.322;2023-08-31T12:53:01;1.77;;;1.17;;
72720;SDS011;60835;50.974;10.322;2023-08-31T12:55:28;2.72;;;1.80;;
72720;SDS011;60835;50.974;10.322;2023-08-31T12:57:56;2.78;;;1.38;;
72720;SDS011;60835;50.974;10.322;2023-08-31T13:00:24;12.63;;;8.45;;
72720;SDS011;60835;50.974;10.322;2023-08-31T13:02:50;2.58;;;1.60;;
72720;SDS011;60835;50.974;10.322;2023-08-31T13:05:17;2.78;;;1.50;;
72720;SDS011;60835;50.974;10.322;2023-08-31T13:07:44;4.00;;;1.05;;
72720;SDS011;60835;50.974;10.322;2023-08-31T13:10:11;2.17;;;1.13;;
72720;SDS011;60835;50.974;10.322;2023-08-31T13:12:37;5.80;;;1.30;;
72720;SDS011;60835;50.974;10.322;2023-08-31T13:15:04;4.20;;;1.67;;
72720;SDS011;60835;50.974;10.322;2023-08-31T13:17:34;4.60;;;1.90;;
72720;SDS011;60835;50.974;10.322;2023-08-31T13:20:02;1.80;;;1.20;;
72720;SDS011;60835;50.974;10.322;2023-08-31T13:22:30;2.80;;;1.30;;
72720;SDS011;60835;50.974;10.322;2023-08-31T13:24:57;2.08;;;1.75;;
72720;SDS011;60835;50.974;10.322;2023-08-31T13:27:24;2.47;;;1.40;;
72720;SDS011;60835;50.974;10.322;2023-08-31T13:29:51;3.05;;;2.05;;
72720;SDS011;60835;50.974;10.322;2023-08-31T13:32:17;3.67;;;1.80;;
72720;SDS011;60835;50.974;10.322;2023-08-31T13:34:44;4.30;;;1.88;;
72720;SDS011;60835;50.974;10.322;2023-08-31T13:37:11;3.30;;;1.38;;
72720;SDS011;60835;50.974;10.322;2023-08-31T13:39:38;3.70;;;1.55;;
72720;SDS011;60835;50.974;10.322;2023-08-31T13:42:07;5.22;;;1.10;;
72720;SDS011;60835;50.974;10.322;2023-08-31T13:44:34;3.38;;;1.55;;
72720;SDS011;60835;50.974;10.322;2023-08-31T13:47:01;2.17;;;1.30;;
72720;SDS011;60835;50.974;10.322;2023-08-31T13:49:30;6.15;;;3.30;;
72720;SDS011;60835;50.974;10.322;2023-08-31T13:51:56;4.93;;;1.52;;
72720;SDS011;60835;50.974;10.322;2023-08-31T13:54:23;4.57;;;1.50;;
72720;SDS011;60835;50.974;10.322;2023-08-31T13:56:50;6.75;;;1.58;;
72720;SDS011;60835;50.974;10.322;2023-08-31T13:59:18;5.80;;;1.55;;
72720;SDS011;60835;50.974;10.322;2023-08-31T14:01:44;5.35;;;1.10;;
72720;SDS011;60835;50.974;10.322;2023-08-31T14:04:11;2.90;;;1.33;;
72720;SDS011;60835;50.974;10.322;2023-08-31T14:06:38;2.78;;;1.02;;
72720;SDS011;60835;50.974;10.322;2023-08-31T14:09:05;4.68;;;1.42;;
72720;SDS011;60835;50.974;10.322;2023-08-31T14:11:31;3.85;;;1.50;;
72720;SDS011;60835;50.974;10.322;2023-08-31T14:14:05;2.58;;;1.35;;
72720;SDS011;60835;50.974;10.322;2023-08-31T14:16:35;4.85;;;1.30;;
72720;SDS011;60835;50.974;10.322;2023-08-31T14:19:05;3.42;;;1.33;;
72720;SDS011;60835;50.974;10.322;2023-08-31T14:21:32;5.50;;;1.40;;
72720;SDS011;60835;50.974;10.322;2023-08-31T14:23:58;4.35;;;1.38;;
72720;SDS011;60835;50.974;10.322;2023-08-31T14:26:25;3.75;;;1.40;;
72720;SDS011;60835;50.974;10.322;2023-08-31T14:28:52;3.90;;;1.17;;
72720;SDS011;60835;50.974;10.322;2023-08-31T14:31:20;4.53;;;1.20;;
72720;SDS011;60835;50.974;10.322;2023-08-31T14:33:46;2.50;;;1.42;;
72720;SDS011;60835;50.974;10.322;2023-08-31T14:36:14;2.80;;;1.50;;
72720;SDS011;60835;50.974;10.322;2023-08-31T14:38:41;4.18;;;1.40;;
72720;SDS011;60835;50.974;10.322;2023-08-31T14:41:08;15.77;;;8.40;;
72720;SDS011;60835;50.974;10.322;2023-08-31T14:43:35;2.13;;;1.13;;
72720;SDS011;60835;50.974;10.322;2023-08-31T14:46:02;2.80;;;1.00;;
72720;SDS011;60835;50.974;10.322;2023-08-31T14:48:33;5.07;;;1.50;;
72720;SDS011;60835;50.974;10.322;2023-08-31T14:51:01;1.98;;;1.20;;
72720;SDS011;60835;50.974;10.322;2023-08-31T14:53:28;4.38;;;1.33;;
72720;SDS011;60835;50.974;10.322;2023-08-31T14:55:55;2.42;;;1.13;;